Time;durP1;ratioP1;P1;durP2;ratioP2;P2;SDS_P1;SDS_P2;PMS_P1;PMS_P2;Temp;Humidity;BMP_temperature;BMP_pressure;BME280_temperature;BME280_humidity;BME280_pressure;Samples;Min_cycle;Max_cycle;Signal;HPM_P1;HPM_P2
2021/12/12 00:02:34;;;;;;;38.10;18.80;;;;;;;-141.50;100.00;63355.56;4968186;28;20105;-76
2021/12/12 00:05:08;;;;;;;41.08;19.10;;;;;;;-141.50;100.00;63355.56;4968702;28;20070;-76
2021/12/12 00:07:35;;;;;;;44.25;19.50;;;;;;;-141.50;100.00;63355.56;4969003;28;20062;-77
2021/12/12 00:10:09;;;;;;;44.83;20.48;;;;;;;-141.50;100.00;63355.56;4969080;28;20114;-77
2021/12/12 00:12:40;;;;;;;44.08;19.67;;;;;;;-141.50;100.00;63355.56;4972859;28;20109;-77
2021/12/12 00:15:08;;;;;;;49.00;19.45;;;;;;;-141.50;100.00;63355.56;4972883;28;20062;-77
2021/12/12 00:17:34;;;;;;;49.08;21.70;;;;;;;-141.50;100.00;63355.56;4971458;28;20050;-77
2021/12/12 00:20:04;;;;;;;46.33;20.23;;;;;;;-141.50;100.00;63355.56;4968936;28;20603;-78
2021/12/12 00:22:32;;;;;;;48.80;20.60;;;;;;;-141.50;100.00;63355.56;4960006;28;20117;-78
2021/12/12 00:24:59;;;;;;;43.45;19.90;;;;;;;-141.50;100.00;63355.56;4953317;28;20055;-76
2021/12/12 00:27:26;;;;;;;47.35;20.45;;;;;;;-141.50;100.00;63355.56;4966667;28;20078;-77
2021/12/12 00:29:52;;;;;;;46.10;20.20;;;;;;;-141.50;100.00;63355.56;4971284;28;20463;-78
2021/12/12 00:32:23;;;;;;;44.85;20.27;;;;;;;-141.50;100.00;63355.56;4961159;28;20050;-77
2021/12/12 00:34:57;;;;;;;48.28;20.80;;;;;;;-141.50;100.00;63355.56;4955414;28;20050;-79
2021/12/12 00:37:23;;;;;;;48.08;20.85;;;;;;;-141.50;100.00;63355.56;4956116;29;20051;-78
2021/12/12 00:39:54;;;;;;;53.00;22.30;;;;;;;-141.50;100.00;63355.56;4961927;28;20047;-78
2021/12/12 00:42:24;;;;;;;44.53;20.50;;;;;;;-141.50;100.00;63355.56;4957850;29;20077;-77
2021/12/12 00:44:57;;;;;;;47.85;21.00;;;;;;;-141.50;100.00;63355.56;4958437;28;20110;-78
2021/12/12 00:47:24;;;;;;;49.45;21.48;;;;;;;-141.50;100.00;63355.56;4956547;28;20146;-78
2021/12/12 00:50:14;;;;;;;53.13;21.83;;;;;;;-141.50;100.00;63355.56;4957097;28;20090;-78
2021/12/12 00:52:42;;;;;;;47.38;20.60;;;;;;;-141.50;100.00;63355.56;4958391;28;20070;-78
2021/12/12 00:55:09;;;;;;;47.85;21.05;;;;;;;-141.50;100.00;63355.56;4958783;28;20488;-78
2021/12/12 00:57:36;;;;;;;48.60;20.67;;;;;;;-141.50;100.00;63355.56;4964549;28;20051;-77
2021/12/12 01:00:05;;;;;;;45.95;20.50;;;;;;;-141.50;100.00;63355.56;4968558;29;20051;-79
2021/12/12 01:02:32;;;;;;;50.38;21.48;;;;;;;-141.50;100.00;63355.56;4967479;28;20057;-76
2021/12/12 01:05:03;;;;;;;51.90;21.67;;;;;;;-141.50;100.00;63355.56;4967610;29;20051;-77
2021/12/12 01:07:35;;;;;;;56.67;23.77;;;;;;;-141.50;100.00;63355.56;4962919;29;20510;-77
2021/12/12 01:10:26;;;;;;;52.20;23.33;;;;;;;-141.50;100.00;63355.56;4956544;28;20083;-78
2021/12/12 01:12:55;;;;;;;57.25;24.42;;;;;;;-141.50;100.00;63355.56;4956306;28;20051;-77
2021/12/12 01:15:27;;;;;;;54.08;23.35;;;;;;;-141.50;100.00;63355.56;4955366;28;20058;-78
2021/12/12 01:17:57;;;;;;;54.35;23.42;;;;;;;-141.50;100.00;63355.56;4957848;28;20055;-78
2021/12/12 01:20:37;;;;;;;52.58;23.17;;;;;;;-141.50;100.00;63355.56;4960018;28;20119;-79
2021/12/12 01:23:14;;;;;;;52.58;23.10;;;;;;;-141.50;100.00;63355.56;4961911;28;20086;-78
2021/12/12 01:25:45;;;;;;;59.22;25.60;;;;;;;-141.50;100.00;63355.56;4963520;28;20044;-77
2021/12/12 01:28:15;;;;;;;63.03;23.98;;;;;;;-141.50;100.00;63355.56;4963911;28;20062;-76
2021/12/12 01:30:42;;;;;;;63.25;25.73;;;;;;;-141.50;100.00;63355.56;4960739;29;20594;-78
2021/12/12 01:33:10;;;;;;;57.65;24.92;;;;;;;-141.50;100.00;63355.56;4964790;28;20071;-78
2021/12/12 01:35:39;;;;;;;59.85;24.70;;;;;;;-141.50;100.00;63355.56;4965527;28;20047;-76
2021/12/12 01:40:56;;;;;;;59.38;24.98;;;;;;;-141.50;100.00;63355.56;4964688;29;20109;-76
2021/12/12 01:43:34;;;;;;;57.45;25.77;;;;;;;-141.50;100.00;63355.56;4965300;28;20052;-76
2021/12/12 01:46:06;;;;;;;64.90;26.98;;;;;;;-141.50;100.00;63355.56;4963951;29;20047;-78
2021/12/12 01:48:45;;;;;;;59.80;26.77;;;;;;;-141.50;100.00;63355.56;4964017;28;20504;-77
2021/12/12 01:51:13;;;;;;;56.05;25.17;;;;;;;-141.50;100.00;63355.56;4962476;28;20562;-79
2021/12/12 01:53:45;;;;;;;59.95;25.27;;;;;;;-141.50;100.00;63355.56;4962839;28;20039;-77
2021/12/12 01:56:26;;;;;;;54.88;24.02;;;;;;;-141.50;100.00;63355.56;4962214;28;20070;-78
2021/12/12 01:58:55;;;;;;;60.17;24.67;;;;;;;-141.50;100.00;63355.56;4962261;28;20055;-77
2021/12/12 02:01:34;;;;;;;60.00;25.95;;;;;;;-141.50;100.00;63355.56;4961362;29;20106;-76
2021/12/12 02:04:12;;;;;;;50.80;23.75;;;;;;;-141.50;100.00;63355.56;4960628;28;20051;-76
2021/12/12 02:06:43;;;;;;;52.85;24.30;;;;;;;-141.50;100.00;63355.56;4959819;28;20055;-78
2021/12/12 02:09:11;;;;;;;55.40;24.25;;;;;;;-141.50;100.00;63355.56;4957161;28;20047;-77
2021/12/12 02:11:39;;;;;;;59.30;25.02;;;;;;;-141.50;100.00;63355.56;4987047;28;20563;-78
2021/12/12 02:14:11;;;;;;;53.67;24.40;;;;;;;-141.50;100.00;63355.56;4986516;28;20051;-76
2021/12/12 02:16:48;;;;;;;55.80;24.33;;;;;;;-141.50;100.00;63355.56;4954532;28;20083;-78
2021/12/12 02:19:17;;;;;;;61.63;24.38;;;;;;;-141.50;100.00;63355.56;4953643;28;20089;-79
2021/12/12 02:22:24;;;;;;;52.28;22.23;;;;;;;-141.50;100.00;63355.56;4953930;28;20467;-78
2021/12/12 02:35:54;;;;;;;47.20;21.55;;;;;;;-141.50;100.00;63355.56;4954588;29;20074;-78
2021/12/12 02:38:26;;;;;;;46.33;21.70;;;;;;;-141.50;100.00;63355.56;4953807;28;20052;-77
2021/12/12 02:40:59;;;;;;;42.63;18.30;;;;;;;-141.50;100.00;63355.56;4984514;28;20106;-77
2021/12/12 02:43:28;;;;;;;39.38;17.60;;;;;;;-141.50;100.00;63355.56;4953160;28;20071;-77
2021/12/12 02:45:57;;;;;;;42.90;19.02;;;;;;;-141.50;100.00;63355.56;4953304;28;20051;-77
2021/12/12 02:48:27;;;;;;;42.35;17.50;;;;;;;-141.50;100.00;63355.56;4952592;28;20102;-77
2021/12/12 02:50:56;;;;;;;45.33;19.73;;;;;;;-141.50;100.00;63355.56;4952145;28;20405;-77
2021/12/12 02:53:28;;;;;;;42.15;18.60;;;;;;;-141.50;100.00;63355.56;4952627;28;20138;-78
2021/12/12 02:56:08;;;;;;;43.35;18.90;;;;;;;-141.50;100.00;63355.56;4951639;28;20051;-78
2021/12/12 02:58:35;;;;;;;42.22;18.35;;;;;;;-141.50;100.00;63355.56;4951533;28;20456;-78
2021/12/12 03:01:45;;;;;;;39.97;18.55;;;;;;;-141.50;100.00;63355.56;4950969;29;20137;-77
2021/12/12 03:04:12;;;;;;;42.90;18.80;;;;;;;-141.50;100.00;63355.56;4951002;29;20138;-77
2021/12/12 03:06:42;;;;;;;40.53;18.25;;;;;;;-141.50;100.00;63355.56;4952982;28;20141;-77
2021/12/12 03:09:27;;;;;;;44.17;19.30;;;;;;;-141.50;100.00;63355.56;4952162;28;20055;-77
2021/12/12 03:11:59;;;;;;;48.58;19.17;;;;;;;-141.50;100.00;63355.56;4955264;28;20055;-76
2021/12/12 03:14:32;;;;;;;41.80;20.58;;;;;;;-141.50;100.00;63355.56;4952665;29;20134;-78
2021/12/12 03:17:13;;;;;;;45.33;20.05;;;;;;;-141.50;100.00;63355.56;4953642;28;20097;-78
2021/12/12 03:19:39;;;;;;;50.70;21.58;;;;;;;-141.50;100.00;63355.56;4952474;28;20047;-76
2021/12/12 03:22:09;;;;;;;44.42;19.65;;;;;;;-141.50;100.00;63355.56;4952737;28;20110;-78
2021/12/12 03:24:36;;;;;;;43.55;20.77;;;;;;;-141.50;100.00;63355.56;4952019;28;20051;-78
2021/12/12 03:27:05;;;;;;;41.28;19.63;;;;;;;-141.50;100.00;63355.56;4952708;28;20110;-77
2021/12/12 03:29:32;;;;;;;44.67;20.80;;;;;;;-141.50;100.00;63355.56;4950634;28;20051;-78
2021/12/12 03:32:04;;;;;;;41.65;19.42;;;;;;;-141.50;100.00;63355.56;4951913;28;20043;-78
2021/12/12 03:34:34;;;;;;;40.85;19.48;;;;;;;-141.50;100.00;63355.56;4952586;28;20082;-77
2021/12/12 03:37:04;;;;;;;42.08;18.33;;;;;;;-141.50;100.00;63355.56;4952905;28;20090;-78
2021/12/12 03:39:36;;;;;;;37.97;17.52;;;;;;;-141.50;100.00;63355.56;4950936;28;20051;-78
2021/12/12 03:42:09;;;;;;;42.60;18.27;;;;;;;-141.50;100.00;63355.56;4952026;28;20101;-78
2021/12/12 03:44:38;;;;;;;39.30;17.92;;;;;;;-141.50;100.00;63355.56;4951765;28;20082;-78
2021/12/12 03:47:10;;;;;;;39.75;17.27;;;;;;;-141.50;100.00;63355.56;4955134;28;20187;-77
2021/12/12 03:49:37;;;;;;;37.15;16.08;;;;;;;-141.50;100.00;63355.56;4968639;29;20062;-76
2021/12/12 03:52:06;;;;;;;41.83;18.25;;;;;;;-141.50;100.00;63355.56;4955291;28;20135;-77
2021/12/12 03:54:34;;;;;;;32.58;15.85;;;;;;;-141.50;100.00;63355.56;4951981;28;20148;-76
2021/12/12 03:57:01;;;;;;;37.08;16.80;;;;;;;-141.50;100.00;63355.56;4951383;29;20098;-78
2021/12/12 03:59:28;;;;;;;40.63;17.17;;;;;;;-141.50;100.00;63355.56;4957529;28;20139;-79
2021/12/12 04:01:54;;;;;;;31.67;15.85;;;;;;;-141.50;100.00;63355.56;4970057;28;20453;-77
2021/12/12 04:04:30;;;;;;;34.47;15.18;;;;;;;-141.50;100.00;63355.56;4970592;28;20578;-79
2021/12/12 04:06:59;;;;;;;33.65;15.30;;;;;;;-141.50;100.00;63355.56;4971017;28;20499;-77
2021/12/12 04:09:26;;;;;;;32.75;15.00;;;;;;;-141.50;100.00;63355.56;4970606;28;20058;-78
2021/12/12 04:11:56;;;;;;;29.05;14.82;;;;;;;-141.50;100.00;63355.56;5001899;28;20055;-77
2021/12/12 04:14:24;;;;;;;31.70;15.07;;;;;;;-141.50;100.00;63355.56;4970694;28;20094;-77
2021/12/12 04:16:54;;;;;;;31.55;14.18;;;;;;;-141.50;100.00;63355.56;4971686;28;20450;-77
2021/12/12 04:19:21;;;;;;;31.73;14.70;;;;;;;-141.50;100.00;63355.56;4970134;28;20554;-78
2021/12/12 04:21:48;;;;;;;33.28;14.60;;;;;;;-141.50;100.00;63355.56;4970728;28;20106;-78
2021/12/12 04:24:22;;;;;;;31.52;14.23;;;;;;;-141.50;100.00;63355.56;4970556;28;20081;-78
2021/12/12 04:26:49;;;;;;;29.48;13.98;;;;;;;-141.50;100.00;63355.56;4969946;28;20050;-77
2021/12/12 04:29:19;;;;;;;34.47;14.80;;;;;;;-141.50;100.00;63355.56;4970357;28;20050;-78
2021/12/12 04:31:52;;;;;;;28.90;14.60;;;;;;;-141.50;100.00;63355.56;5001569;28;20559;-78
2021/12/12 04:34:23;;;;;;;31.08;13.73;;;;;;;-141.50;100.00;63355.56;4970314;28;20054;-77
2021/12/12 04:36:51;;;;;;;31.77;14.35;;;;;;;-141.50;100.00;63355.56;4969244;28;20142;-79
2021/12/12 04:39:21;;;;;;;33.72;15.45;;;;;;;-141.50;100.00;63355.56;4970040;28;20103;-78
2021/12/12 04:41:50;;;;;;;34.25;15.50;;;;;;;-141.50;100.00;63355.56;4971359;28;20526;-77
2021/12/12 04:44:22;;;;;;;33.22;15.43;;;;;;;-141.50;100.00;63355.56;4970954;28;20139;-78
2021/12/12 04:50:20;;;;;;;32.10;14.90;;;;;;;-141.50;100.00;63355.56;4968957;28;20055;-78
2021/12/12 04:53:22;;;;;;;31.88;14.43;;;;;;;-141.50;100.00;63355.56;4971288;28;20109;-77
2021/12/12 04:56:11;;;;;;;33.08;14.65;;;;;;;-141.50;100.00;63355.56;4966625;28;20055;-79
2021/12/12 04:58:45;;;;;;;32.53;15.55;;;;;;;-141.50;100.00;63355.56;4974751;28;20159;-78
2021/12/12 05:01:14;;;;;;;;;;;;;;;-141.50;100.00;63355.56;4974281;28;20066;-76
2021/12/12 05:03:55;;;;;;;34.35;14.93;;;;;;;-141.50;100.00;63355.56;4973048;28;20025;-78
2021/12/12 05:06:26;;;;;;;34.60;15.68;;;;;;;-141.50;100.00;63355.56;4974148;28;20055;-78
2021/12/12 05:08:59;;;;;;;34.65;15.15;;;;;;;-141.50;100.00;63355.56;5005275;28;20054;-77
2021/12/12 05:11:50;;;;;;;30.95;13.93;;;;;;;-141.50;100.00;63355.56;4973884;28;20055;-77
2021/12/12 05:14:22;;;;;;;32.67;14.07;;;;;;;-141.50;100.00;63355.56;4973670;28;20704;-76
2021/12/12 05:17:01;;;;;;;26.83;13.35;;;;;;;-141.50;100.00;63355.56;4964442;28;20048;-75
2021/12/12 05:19:29;;;;;;;29.23;13.65;;;;;;;-141.50;100.00;63355.56;4950429;28;20151;-77
2021/12/12 05:22:07;;;;;;;31.50;14.95;;;;;;;-141.50;100.00;63355.56;4954231;28;20504;-76
2021/12/12 05:24:37;;;;;;;37.40;16.90;;;;;;;-141.50;100.00;63355.56;4954918;28;20492;-77
2021/12/12 05:27:13;;;;;;;41.42;18.52;;;;;;;-141.50;100.00;63355.56;4954874;28;20504;-78
2021/12/12 05:29:45;;;;;;;39.33;18.67;;;;;;;-141.50;100.00;63355.56;4954428;28;20102;-78
2021/12/12 05:32:13;;;;;;;38.40;18.38;;;;;;;-141.50;100.00;63355.56;4954984;28;20456;-78
2021/12/12 05:34:44;;;;;;;42.42;19.17;;;;;;;-141.50;100.00;63355.56;4953150;28;20083;-79
2021/12/12 05:37:11;;;;;;;48.38;20.13;;;;;;;-141.50;100.00;63355.56;4956080;28;20066;-78
2021/12/12 05:39:39;;;;;;;45.80;18.98;;;;;;;-141.50;100.00;63355.56;5002934;28;20082;-75
2021/12/12 05:42:06;;;;;;;37.35;17.27;;;;;;;-141.50;100.00;63355.56;4993278;28;20045;-78
2021/12/12 05:44:34;;;;;;;31.48;13.07;;;;;;;-141.50;100.00;63355.56;4995066;28;20070;-78
2021/12/12 05:47:04;;;;;;;31.55;12.88;;;;;;;-141.50;100.00;63355.56;4959623;29;20095;-79
2021/12/12 05:49:32;;;;;;;28.83;12.68;;;;;;;-141.50;100.00;63355.56;4954255;28;20404;-77
2021/12/12 05:52:00;;;;;;;30.17;12.50;;;;;;;-141.50;100.00;63355.56;4953808;28;20079;-77
2021/12/12 05:54:28;;;;;;;28.55;13.13;;;;;;;-141.50;100.00;63355.56;4984404;28;20055;-78
2021/12/12 05:56:55;;;;;;;24.85;11.60;;;;;;;-141.50;100.00;63355.56;4952786;29;20052;-78
2021/12/12 05:59:22;;;;;;;26.13;11.95;;;;;;;-141.50;100.00;63355.56;4984196;28;20118;-77
2021/12/12 06:01:49;;;;;;;23.90;11.60;;;;;;;-141.50;100.00;63355.56;4951957;29;20122;-77
2021/12/12 06:04:18;;;;;;;25.48;11.32;;;;;;;-141.50;100.00;63355.56;4951208;28;20051;-77
2021/12/12 06:06:45;;;;;;;24.75;11.98;;;;;;;-141.50;100.00;63355.56;4951747;28;20071;-77
2021/12/12 06:09:13;;;;;;;26.65;11.60;;;;;;;-141.50;100.00;63355.56;4952253;29;20090;-77
2021/12/12 06:11:43;;;;;;;24.08;11.30;;;;;;;-141.50;100.00;63355.56;4963025;28;20082;-78
2021/12/12 06:14:10;;;;;;;26.52;11.25;;;;;;;-141.50;100.00;63355.56;4994270;28;20463;-78
2021/12/12 06:16:38;;;;;;;23.35;10.85;;;;;;;-141.50;100.00;63355.56;4983487;28;20051;-77
2021/12/12 06:19:10;;;;;;;23.73;11.30;;;;;;;-141.50;100.00;63355.56;4983906;28;20395;-77
2021/12/12 06:21:37;;;;;;;23.42;11.50;;;;;;;-141.50;100.00;63355.56;4951560;28;20055;-78
2021/12/12 06:24:05;;;;;;;24.65;11.23;;;;;;;-141.50;100.00;63355.56;4952748;28;20065;-78
2021/12/12 06:26:34;;;;;;;25.50;11.65;;;;;;;-141.50;100.00;63355.56;4950038;29;20071;-77
2021/12/12 06:29:00;;;;;;;23.90;11.23;;;;;;;-141.50;100.00;63355.56;4950264;29;20075;-78
2021/12/12 06:31:27;;;;;;;21.38;10.18;;;;;;;-141.50;100.00;63355.56;4953146;28;20437;-77
2021/12/12 06:33:55;;;;;;;24.88;11.00;;;;;;;-141.50;100.00;63355.56;4953407;28;20054;-78
2021/12/12 06:36:23;;;;;;;20.50;10.68;;;;;;;-141.50;100.00;63355.56;4953299;28;20051;-78
2021/12/12 06:38:52;;;;;;;23.70;10.88;;;;;;;-141.50;100.00;63355.56;4952875;28;20055;-77
2021/12/12 06:41:21;;;;;;;25.13;11.00;;;;;;;-141.50;100.00;63355.56;4953389;28;20067;-77
2021/12/12 06:43:49;;;;;;;24.48;11.35;;;;;;;-141.50;100.00;63355.56;4953960;28;20055;-77
2021/12/12 06:46:19;;;;;;;25.27;10.65;;;;;;;-141.50;100.00;63355.56;4954067;28;20051;-76
2021/12/12 06:48:46;;;;;;;25.20;11.00;;;;;;;-141.50;100.00;63355.56;4952542;28;20061;-76
2021/12/12 06:51:14;;;;;;;26.77;11.40;;;;;;;-141.50;100.00;63355.56;4939294;29;20079;-77
2021/12/12 06:53:43;;;;;;;21.70;10.52;;;;;;;-141.50;100.00;63355.56;4987974;28;20055;-77
2021/12/12 06:56:15;;;;;;;25.60;11.13;;;;;;;-141.50;100.00;63355.56;4959079;28;20051;-76
2021/12/12 06:58:42;;;;;;;25.27;11.25;;;;;;;-141.50;100.00;63355.56;4957772;28;20066;-77
2021/12/12 07:01:16;;;;;;;23.67;11.27;;;;;;;-141.50;100.00;63355.56;4952324;28;20051;-78
2021/12/12 07:03:44;;;;;;;22.45;10.55;;;;;;;-141.50;100.00;63355.56;4950923;28;20465;-78
2021/12/12 07:06:12;;;;;;;25.02;11.60;;;;;;;-141.50;100.00;63355.56;4952317;28;20484;-78
2021/12/12 07:08:40;;;;;;;23.33;10.45;;;;;;;-141.50;100.00;63355.56;4952322;29;20146;-79
2021/12/12 07:11:07;;;;;;;27.92;11.85;;;;;;;-141.50;100.00;63355.56;4953988;29;20420;-78
2021/12/12 07:13:35;;;;;;;23.48;11.05;;;;;;;-141.50;100.00;63355.56;4952914;28;20568;-78
2021/12/12 07:16:07;;;;;;;24.08;11.60;;;;;;;-141.50;100.00;63355.56;4952139;28;20051;-77
2021/12/12 07:18:35;;;;;;;25.23;11.60;;;;;;;-141.50;100.00;63355.56;4948435;28;20540;-78
2021/12/12 07:21:08;;;;;;;26.05;12.00;;;;;;;-141.50;100.00;63355.56;4949535;29;20055;-77
2021/12/12 07:23:37;;;;;;;24.92;10.90;;;;;;;-141.50;100.00;63355.56;4952014;28;20074;-76
2021/12/12 07:26:06;;;;;;;26.48;11.43;;;;;;;-141.50;100.00;63355.56;4952040;28;20118;-76
2021/12/12 07:28:34;;;;;;;25.65;11.50;;;;;;;-141.50;100.00;63355.56;4949294;28;20484;-77
2021/12/12 07:31:05;;;;;;;27.45;11.90;;;;;;;-141.50;100.00;63355.56;4952175;28;20051;-78
2021/12/12 07:33:33;;;;;;;25.52;11.48;;;;;;;-141.50;100.00;63355.56;4948855;29;20082;-78
2021/12/12 07:36:03;;;;;;;23.63;11.70;;;;;;;-141.50;100.00;63355.56;4950954;28;20106;-77
2021/12/12 07:38:31;;;;;;;26.30;13.15;;;;;;;-141.50;100.00;63355.56;4982784;28;20082;-76
2021/12/12 07:41:05;;;;;;;29.40;12.02;;;;;;;-141.50;100.00;63355.56;4951813;28;20102;-78
2021/12/12 07:43:32;;;;;;;26.77;12.00;;;;;;;-141.50;100.00;63355.56;4952682;28;20098;-77
2021/12/12 07:46:00;;;;;;;28.55;13.02;;;;;;;-141.50;100.00;63355.56;4953577;28;20119;-80
2021/12/12 07:48:27;;;;;;;25.83;12.10;;;;;;;-141.50;100.00;63355.56;4951154;29;20504;-80
2021/12/12 07:50:56;;;;;;;25.98;12.15;;;;;;;-141.50;100.00;63355.56;4983960;28;20475;-76
2021/12/12 07:53:25;;;;;;;26.63;12.30;;;;;;;-141.50;100.00;63355.56;4982750;28;20492;-77
2021/12/12 07:55:53;;;;;;;24.80;11.70;;;;;;;-141.50;100.00;63355.56;4952140;28;20191;-77
2021/12/12 07:58:21;;;;;;;24.17;12.10;;;;;;;-141.50;100.00;63355.56;4951255;28;20106;-78
2021/12/12 08:00:50;;;;;;;25.13;12.20;;;;;;;-141.50;100.00;63355.56;4951584;28;20115;-78
2021/12/12 08:03:23;;;;;;;26.75;11.88;;;;;;;-141.50;100.00;63355.56;4932773;29;20527;-77
2021/12/12 08:05:50;;;;;;;25.27;11.05;;;;;;;-141.50;100.00;63355.56;4951422;28;20083;-78
2021/12/12 08:08:18;;;;;;;25.65;11.98;;;;;;;-141.50;100.00;63355.56;4950740;29;20055;-77
2021/12/12 08:10:46;;;;;;;20.13;10.60;;;;;;;-141.50;100.00;63355.56;4951009;28;20047;-77
2021/12/12 08:13:14;;;;;;;22.13;11.05;;;;;;;-141.50;100.00;63355.56;4942638;28;20071;-78
2021/12/12 08:15:42;;;;;;;21.80;10.77;;;;;;;-141.50;100.00;63355.56;4963614;28;20047;-79
2021/12/12 08:18:12;;;;;;;20.48;11.10;;;;;;;-141.50;100.00;63355.56;4964021;28;20106;-78
2021/12/12 08:20:39;;;;;;;22.10;11.35;;;;;;;-141.50;100.00;63355.56;4968212;28;20101;-77
2021/12/12 08:23:07;;;;;;;22.80;11.43;;;;;;;-141.50;100.00;63355.56;4969854;28;20081;-78
2021/12/12 08:25:34;;;;;;;21.38;11.30;;;;;;;-141.50;100.00;63355.56;4969945;28;20093;-78
2021/12/12 08:28:01;;;;;;;22.48;10.85;;;;;;;-141.50;100.00;63355.56;4965827;28;20055;-78
2021/12/12 08:30:31;;;;;;;24.35;11.75;;;;;;;-141.50;100.00;63355.56;4964540;28;20129;-78
2021/12/12 08:32:59;;;;;;;19.92;11.18;;;;;;;-141.50;100.00;63355.56;4972794;28;20114;-76
2021/12/12 08:35:28;;;;;;;24.17;11.80;;;;;;;-141.50;100.00;63355.56;4986453;28;20047;-78
2021/12/12 08:37:58;;;;;;;23.17;12.15;;;;;;;-141.50;100.00;63355.56;4964377;28;20076;-78
2021/12/12 08:40:29;;;;;;;26.65;11.90;;;;;;;-141.50;100.00;63355.56;4954726;28;20658;-75
2021/12/12 08:42:56;;;;;;;24.98;12.63;;;;;;;-141.50;100.00;63355.56;4972102;28;20190;-76
2021/12/12 08:45:28;;;;;;;24.25;13.05;;;;;;;-141.50;100.00;63355.56;4972760;28;20125;-77
2021/12/12 08:47:58;;;;;;;25.95;12.30;;;;;;;-141.50;100.00;63355.56;4971846;28;20059;-75
2021/12/12 08:50:29;;;;;;;22.20;11.43;;;;;;;-141.50;100.00;63355.56;4975244;28;20137;-76
2021/12/12 08:52:57;;;;;;;23.42;11.25;;;;;;;-141.50;100.00;63355.56;4965349;28;20077;-76
2021/12/12 08:55:34;;;;;;;21.52;11.02;;;;;;;-141.50;100.00;63355.56;4976105;28;20164;-76
2021/12/12 08:58:15;;;;;;;20.50;10.13;;;;;;;-141.50;100.00;63355.56;4955402;28;20062;-77
2021/12/12 09:00:45;;;;;;;21.90;10.45;;;;;;;-141.50;100.00;63355.56;4973111;28;20124;-77
2021/12/12 09:03:16;;;;;;;17.83;10.35;;;;;;;-141.50;100.00;63355.56;4970766;28;20054;-77
2021/12/12 09:05:45;;;;;;;15.80;9.40;;;;;;;-141.50;100.00;63355.56;4959960;28;20409;-78
2021/12/12 09:08:21;;;;;;;17.50;10.13;;;;;;;-141.50;100.00;63355.56;4964628;28;20054;-77
2021/12/12 09:10:58;;;;;;;18.77;9.50;;;;;;;-141.50;100.00;63355.56;4970741;28;20047;-77
2021/12/12 09:13:45;;;;;;;18.17;9.82;;;;;;;-141.50;100.00;63355.56;4969620;28;20047;-78
2021/12/12 09:16:20;;;;;;;19.05;10.10;;;;;;;-141.50;100.00;63355.56;4969745;28;20055;-78
2021/12/12 09:19:06;;;;;;;17.90;10.18;;;;;;;-141.50;100.00;63355.56;4965076;28;20070;-78
2021/12/12 09:21:49;;;;;;;;;;;;;;;-141.50;100.00;63355.56;4968693;28;20173;-77
2021/12/12 09:24:26;;;;;;;20.80;9.55;;;;;;;-141.50;100.00;63355.56;4969309;28;20646;-77
2021/12/12 09:26:56;;;;;;;17.15;9.57;;;;;;;-141.50;100.00;63355.56;4971137;28;20198;-76
2021/12/12 09:29:30;;;;;;;15.55;9.25;;;;;;;-141.50;100.00;63355.56;4969771;28;20502;-76
2021/12/12 09:32:10;;;;;;;13.85;8.05;;;;;;;-141.50;100.00;63355.56;4961426;28;20098;-78
2021/12/12 09:35:03;;;;;;;16.30;8.20;;;;;;;-141.50;100.00;63355.56;4948155;28;20055;-76
2021/12/12 09:37:47;;;;;;;19.00;9.07;;;;;;;-141.50;100.00;63355.56;4969527;28;20078;-77
2021/12/12 09:40:28;;;;;;;15.30;8.70;;;;;;;-141.50;100.00;63355.56;4969618;28;20153;-76
2021/12/12 09:43:25;;;;;;;14.90;8.15;;;;;;;-141.50;100.00;63355.56;4963783;28;20127;-77
2021/12/12 09:46:26;;;;;;;15.57;8.52;;;;;;;-141.50;100.00;63355.56;4950055;29;20798;-76
2021/12/12 09:52:43;;;;;;;13.32;7.90;;;;;;;-141.50;100.00;63355.56;4969529;28;20082;-77
2021/12/12 09:55:17;;;;;;;17.70;8.95;;;;;;;-141.50;100.00;63355.56;4969107;28;20543;-77
2021/12/12 09:57:53;;;;;;;15.57;9.30;;;;;;;-141.50;100.00;63355.56;4960591;28;20086;-77
2021/12/12 10:00:26;;;;;;;15.95;8.70;;;;;;;-141.50;100.00;63355.56;4931654;28;20131;-78
2021/12/12 10:03:09;;;;;;;16.80;9.07;;;;;;;-141.50;100.00;63355.56;4953979;28;20055;-77
2021/12/12 10:05:48;;;;;;;20.15;9.48;;;;;;;-141.50;100.00;63355.56;4948852;29;20047;-78
2021/12/12 10:08:42;;;;;;;15.55;8.85;;;;;;;-141.50;100.00;63355.56;4957437;28;20052;-78
2021/12/12 10:11:15;;;;;;;16.33;8.80;;;;;;;-141.50;100.00;63355.56;4949448;28;20130;-76
2021/12/12 10:13:45;;;;;;;16.75;8.68;;;;;;;-141.50;100.00;63355.56;4950892;28;20515;-77
2021/12/12 10:16:27;;;;;;;17.08;9.52;;;;;;;-141.50;100.00;63355.56;4953337;28;20059;-78
2021/12/12 10:19:01;;;;;;;16.40;7.97;;;;;;;-141.50;100.00;63355.56;4953258;28;20089;-77
2021/12/12 10:21:40;;;;;;;14.27;7.28;;;;;;;-141.50;100.00;63355.56;4949954;28;20154;-78
2021/12/12 10:24:17;;;;;;;15.32;8.13;;;;;;;-141.50;100.00;63355.56;4951946;28;20131;-78
2021/12/12 10:26:48;;;;;;;17.77;7.25;;;;;;;-141.50;100.00;63355.56;4966351;28;20054;-78
2021/12/12 10:29:26;;;;;;;14.70;6.55;;;;;;;-141.50;100.00;63355.56;4951134;28;20320;-77
2021/12/12 10:32:13;;;;;;;13.20;5.95;;;;;;;-141.50;100.00;63355.56;4968621;28;20459;-78
2021/12/12 10:34:45;;;;;;;14.60;6.45;;;;;;;-141.50;100.00;63355.56;4966746;28;20050;-77
2021/12/12 10:37:28;;;;;;;15.50;5.18;;;;;;;-141.50;100.00;63355.56;4968667;28;20093;-77
2021/12/12 10:40:29;;;;;;;10.45;4.78;;;;;;;-141.50;100.00;63355.56;4967817;28;20469;-79
2021/12/12 10:43:03;;;;;;;13.75;5.15;;;;;;;-141.50;100.00;63355.56;4956890;28;20685;-79
2021/12/12 10:45:35;;;;;;;11.93;4.78;;;;;;;-141.50;100.00;63355.56;4973164;28;20086;-77
2021/12/12 10:48:07;;;;;;;13.05;4.80;;;;;;;-141.50;100.00;63355.56;4968679;28;20141;-76
2021/12/12 10:51:00;;;;;;;13.95;4.85;;;;;;;-141.50;100.00;63355.56;4950721;28;20082;-78
2021/12/12 10:53:56;;;;;;;11.02;4.78;;;;;;;-141.50;100.00;63355.56;4954566;28;20610;-77
2021/12/12 10:57:13;;;;;;;11.60;5.10;;;;;;;-141.50;100.00;63355.56;4983243;28;20058;-77
2021/12/12 10:59:47;;;;;;;21.67;5.97;;;;;;;-141.50;100.00;63355.56;4910304;29;20119;-78
2021/12/12 11:02:17;;;;;;;14.57;5.18;;;;;;;-141.50;100.00;63355.56;4960866;28;20071;-78
2021/12/12 11:04:47;;;;;;;11.32;4.45;;;;;;;-141.50;100.00;63355.56;4964743;28;20054;-78
2021/12/12 11:07:25;;;;;;;12.90;4.85;;;;;;;-141.50;100.00;63355.56;4968797;28;20117;-78
2021/12/12 11:10:05;;;;;;;10.48;4.57;;;;;;;-141.50;100.00;63355.56;4968264;28;20054;-78
2021/12/12 11:12:35;;;;;;;10.88;4.45;;;;;;;-141.50;100.00;63355.56;4967378;28;20058;-77
2021/12/12 11:15:25;;;;;;;12.32;4.30;;;;;;;-141.50;100.00;63355.56;4966402;28;20055;-78
2021/12/12 11:18:01;;;;;;;13.35;4.55;;;;;;;-141.50;100.00;63355.56;4965703;28;20141;-78
2021/12/12 11:20:54;;;;;;;8.60;4.10;;;;;;;-141.50;100.00;63355.56;4963117;28;20050;-77
2021/12/12 11:23:44;;;;;;;16.10;4.15;;;;;;;-141.50;100.00;63355.56;4961169;28;20428;-77
2021/12/12 11:26:16;;;;;;;12.32;4.38;;;;;;;-141.50;100.00;63355.56;4954558;28;20082;-78
2021/12/12 11:28:47;;;;;;;10.23;4.47;;;;;;;-141.50;100.00;63355.56;4963352;28;20082;-78
2021/12/12 11:31:24;;;;;;;9.13;4.15;;;;;;;-141.50;100.00;63355.56;4958306;28;20562;-78
2021/12/12 11:33:53;;;;;;;11.57;4.03;;;;;;;-141.50;100.00;63355.56;4963812;28;20105;-78
2021/12/12 11:36:29;;;;;;;13.00;4.57;;;;;;;-141.50;100.00;63355.56;4966890;28;20518;-77
2021/12/12 11:39:14;;;;;;;13.75;4.25;;;;;;;-141.50;100.00;63355.56;4960363;28;20059;-77
2021/12/12 11:42:05;;;;;;;14.48;4.40;;;;;;;-141.50;100.00;63355.56;4969012;28;20058;-78
2021/12/12 11:44:42;;;;;;;12.55;4.75;;;;;;;-141.50;100.00;63355.56;4945050;28;20090;-77